Ever Leader — 9V9289 — position and weather

sailwx.info

Track history (hours):
 
Tides and Currents Weather Stations Pressure Air Temp Water Temp Dewpoint Dewpoint Depression Visibility Wind Speed Wind Dir Waves Ship Positions

Ever Leader

Last reported at 2018-Jun-23 05:52 UTC. Time now 2018-Jun-23 06:06 UTC.
Position N 32°08' W 081°09'.

Length 335 m; draft 12 m.

Type: Ship (hazmat cat D). MMSI: 566794000.

Date/timePositionNaut miles runAvg speedWind from/ knotsBaromVisibWave heightAir tempDewpointWater temp
2018-Jun-23 05:52N 32°08' W 081°09'0 0.0
2018-Jun-23 05:28N 32°08' W 081°09'0 0.0
2018-Jun-23 04:58N 32°08' W 081°09'0 0.0
2018-Jun-23 04:28N 32°08' W 081°09'0 0.0
2018-Jun-23 03:58N 32°08' W 081°09'0 0.0
2018-Jun-23 03:22N 32°08' W 081°09'0 0.0
2018-Jun-23 02:58N 32°08' W 081°09'0 0.0
2018-Jun-23 02:28N 32°08' W 081°09'0 0.0
2018-Jun-23 01:58N 32°08' W 081°09'0 0.0
2018-Jun-23 01:28N 32°08' W 081°09'0 0.0
2018-Jun-23 00:52N 32°08' W 081°09'0 0.0
2018-Jun-23 00:28N 32°08' W 081°09'0 0.0
2018-Jun-22 23:58N 32°08' W 081°09'0 0.0
2018-Jun-22 23:28N 32°08' W 081°09'0 0.0
2018-Jun-22 22:58N 32°08' W 081°09'0 0.0
2018-Jun-22 22:28N 32°08' W 081°09'0 0.0
2018-Jun-22 21:58N 32°08' W 081°09'0 0.0
2018-Jun-22 21:22N 32°08' W 081°09'0 0.0
2018-Jun-22 20:58N 32°08' W 081°09'0 0.0
2018-Jun-22 20:28N 32°08' W 081°09'0 0.1
2018-Jun-22 19:58N 32°08' W 081°09'0 0.0
2018-Jun-22 19:22N 32°08' W 081°09'0 0.1
2018-Jun-22 18:58N 32°08' W 081°09'0 0.0
2018-Jun-22 18:28N 32°08' W 081°09'0 0.0
2018-Jun-22 17:52N 32°08' W 081°09'0 0.0
2018-Jun-22 17:28N 32°08' W 081°09'0 0.0
2018-Jun-22 16:52N 32°08' W 081°09'0 0.0
2018-Jun-22 16:28N 32°08' W 081°09'0 0.0
2018-Jun-22 15:58N 32°08' W 081°09'0 0.0
2018-Jun-22 15:28N 32°08' W 081°09'0 0.0
2018-Jun-22 14:58N 32°08' W 081°09'0 0.0
2018-Jun-22 14:28N 32°08' W 081°09'0 0.0
2018-Jun-22 13:58N 32°08' W 081°09'0 0.0
2018-Jun-22 13:28N 32°08' W 081°09'0 0.0
2018-Jun-22 12:52N 32°08' W 081°09'0 0.0
2018-Jun-22 12:28N 32°08' W 081°09'0 0.0
2018-Jun-22 11:58N 32°08' W 081°09'0 0.0
2018-Jun-22 11:28N 32°08' W 081°09'0 0.0
2018-Jun-22 10:16N 32°08' W 081°09'0 0.0
2018-Jun-22 09:58N 32°08' W 081°09'0 0.0
2018-Jun-22 09:16N 32°08' W 081°09'0 0.0
2018-Jun-22 08:58N 32°08' W 081°09'0 0.0
2018-Jun-22 08:22N 32°08' W 081°09'0 0.0
2018-Jun-22 07:58N 32°08' W 081°09'0 0.0
2018-Jun-22 07:23N 32°08' W 081°09'0 0.9
2018-Jun-22 07:00N 32°08' W 081°08'2 4.8
2018-Jun-22 06:30N 32°06' W 081°07'2 4.9
2018-Jun-22 06:00N 32°05' W 081°04'3 5.8
2018-Jun-22 05:29N 32°06' W 081°01'510.7
2018-Jun-22 05:00N 32°03' W 080°56'612.1
2018-Jun-22 04:30N 32°02' W 080°49'713.1
2018-Jun-22 03:59N 31°58' W 080°42'5 9.9
2018-Jun-22 03:30N 31°56' W 080°37'3 5.7
2018-Jun-22 03:00N 31°54' W 080°35'4 8.0
2018-Jun-22 02:30N 31°52' W 080°30'816.3
2018-Jun-22 02:00N 31°49' W 080°22'816.8
2018-Jun-22 01:30N 31°44' W 080°14'816.7
2018-Jun-22 01:00N 31°40' W 080°05'816.7
2018-Jun-22 00:30N 31°36' W 079°57'816.6
2018-Jun-22 00:00N 31°31' W 079°49'816.4
2018-Jun-21 23:30N 31°27' W 079°40'815.9
2018-Jun-21 23:00N 31°24' W 079°32'816.0
2018-Jun-21 22:30N 31°20' W 079°23'816.6
2018-Jun-21 22:00N 31°15' W 079°15'  
2018-Jun-18 16:11N 09°43' W 079°44'417.6
2018-Jun-18 15:56N 09°39' W 079°46'716.4
2018-Jun-18 15:30N 09°33' W 079°49'715.0
2018-Jun-18 15:00N 09°27' W 079°53'5 9.2
2018-Jun-18 14:30N 09°22' W 079°54'0 0.7
2018-Jun-18 14:00N 09°23' W 079°53'0 0.0
2018-Jun-18 13:29N 09°23' W 079°53'0 0.0
2018-Jun-18 12:59N 09°23' W 079°53'0 0.0
2018-Jun-18 12:29N 09°23' W 079°53'0 0.0
2018-Jun-18 11:59N 09°22' W 079°53'0 0.0
2018-Jun-18 11:23N 09°23' W 079°53'0 0.0
2018-Jun-18 10:59N 09°23' W 079°53'0 0.0
2018-Jun-18 10:29N 09°23' W 079°53'0 0.0
2018-Jun-18 09:59N 09°23' W 079°53'0 0.0
2018-Jun-18 09:29N 09°23' W 079°53'0 0.0
2018-Jun-18 08:59N 09°23' W 079°53'0 0.0
2018-Jun-18 08:29N 09°23' W 079°53'0 0.0
2018-Jun-18 07:59N 09°23' W 079°53'0 0.0
2018-Jun-18 07:29N 09°23' W 079°53'0 0.0
2018-Jun-18 06:59N 09°23' W 079°53'0 0.0
2018-Jun-18 06:29N 09°23' W 079°53'0 0.0
2018-Jun-18 05:59N 09°23' W 079°53'0 0.0
2018-Jun-18 05:29N 09°22' W 079°53'0 0.0
2018-Jun-18 04:59N 09°23' W 079°53'0 0.0
2018-Jun-18 04:29N 09°23' W 079°53'0 0.0
2018-Jun-18 03:59N 09°23' W 079°53'0 0.0
2018-Jun-18 03:29N 09°23' W 079°53'0 0.0
2018-Jun-18 02:59N 09°23' W 079°53'0 0.0
2018-Jun-18 02:29N 09°23' W 079°53'0 0.0
2018-Jun-18 01:59N 09°23' W 079°53'0 0.0
2018-Jun-18 01:29N 09°23' W 079°53'0 0.0
2018-Jun-18 00:59N 09°23' W 079°53'0 0.0
2018-Jun-18 00:26N 09°22' W 079°53'0 0.0
2018-Jun-17 23:59N 09°23' W 079°53'0 0.0
2018-Jun-17 23:29N 09°23' W 079°53'0 0.0
2018-Jun-17 22:57N 09°23' W 079°53'0 0.5
2018-Jun-17 22:30N 09°22' W 079°53'3 5.3
2018-Jun-17 22:00N 09°25' W 079°54'3 6.5
2018-Jun-17 21:30N 09°22' W 079°55'4 7.4
2018-Jun-17 21:01N 09°18' W 079°55'2 3.4
2018-Jun-17 20:30N 09°17' W 079°55'0 0.1
2018-Jun-17 19:59N 09°16' W 079°55'0 0.3
2018-Jun-17 19:08N 09°16' W 079°55'0 0.9
2018-Jun-17 18:54N 09°16' W 079°55'0 0.0
2018-Jun-17 18:27N 09°16' W 079°55'1 0.7
2018-Jun-17 17:37N 09°15' W 079°55'0 0.7
2018-Jun-17 16:59N 09°15' W 079°55'2 3.5
2018-Jun-17 16:30N 09°13' W 079°55'  
Track history (hours):
 
Tides and Currents Weather Stations Pressure Air Temp Water Temp Dewpoint Dewpoint Depression Visibility Wind Speed Wind Dir Waves Ship Positions

Ever Leader

Last reported at 2018-Jun-23 05:52 UTC. Time now 2018-Jun-23 06:06 UTC.
Position N 32°08' W 081°09'.

Length 335 m; draft 12 m.

Type: Ship (hazmat cat D). MMSI: 566794000.

Date/timePositionNaut miles runAvg speedWind from/ knotsBaromVisibWave heightAir tempDewpointWater temp
2018-Jun-23 05:52N 32°08' W 081°09'0 0.0
2018-Jun-23 05:28N 32°08' W 081°09'0 0.0
2018-Jun-23 04:58N 32°08' W 081°09'0 0.0
2018-Jun-23 04:28N 32°08' W 081°09'0 0.0
2018-Jun-23 03:58N 32°08' W 081°09'0 0.0
2018-Jun-23 03:22N 32°08' W 081°09'0 0.0
2018-Jun-23 02:58N 32°08' W 081°09'0 0.0
2018-Jun-23 02:28N 32°08' W 081°09'0 0.0
2018-Jun-23 01:58N 32°08' W 081°09'0 0.0
2018-Jun-23 01:28N 32°08' W 081°09'0 0.0
2018-Jun-23 00:52N 32°08' W 081°09'0 0.0
2018-Jun-23 00:28N 32°08' W 081°09'0 0.0
2018-Jun-22 23:58N 32°08' W 081°09'0 0.0
2018-Jun-22 23:28N 32°08' W 081°09'0 0.0
2018-Jun-22 22:58N 32°08' W 081°09'0 0.0
2018-Jun-22 22:28N 32°08' W 081°09'0 0.0
2018-Jun-22 21:58N 32°08' W 081°09'0 0.0
2018-Jun-22 21:22N 32°08' W 081°09'0 0.0
2018-Jun-22 20:58N 32°08' W 081°09'0 0.0
2018-Jun-22 20:28N 32°08' W 081°09'0 0.1
2018-Jun-22 19:58N 32°08' W 081°09'0 0.0
2018-Jun-22 19:22N 32°08' W 081°09'0 0.1
2018-Jun-22 18:58N 32°08' W 081°09'0 0.0
2018-Jun-22 18:28N 32°08' W 081°09'0 0.0
2018-Jun-22 17:52N 32°08' W 081°09'0 0.0
2018-Jun-22 17:28N 32°08' W 081°09'0 0.0
2018-Jun-22 16:52N 32°08' W 081°09'0 0.0
2018-Jun-22 16:28N 32°08' W 081°09'0 0.0
2018-Jun-22 15:58N 32°08' W 081°09'0 0.0
2018-Jun-22 15:28N 32°08' W 081°09'0 0.0
2018-Jun-22 14:58N 32°08' W 081°09'0 0.0
2018-Jun-22 14:28N 32°08' W 081°09'0 0.0
2018-Jun-22 13:58N 32°08' W 081°09'0 0.0
2018-Jun-22 13:28N 32°08' W 081°09'0 0.0
2018-Jun-22 12:52N 32°08' W 081°09'0 0.0
2018-Jun-22 12:28N 32°08' W 081°09'0 0.0
2018-Jun-22 11:58N 32°08' W 081°09'0 0.0
2018-Jun-22 11:28N 32°08' W 081°09'0 0.0
2018-Jun-22 10:16N 32°08' W 081°09'0 0.0
2018-Jun-22 09:58N 32°08' W 081°09'0 0.0
2018-Jun-22 09:16N 32°08' W 081°09'0 0.0
2018-Jun-22 08:58N 32°08' W 081°09'0 0.0
2018-Jun-22 08:22N 32°08' W 081°09'0 0.0
2018-Jun-22 07:58N 32°08' W 081°09'0 0.0
2018-Jun-22 07:23N 32°08' W 081°09'0 0.9
2018-Jun-22 07:00N 32°08' W 081°08'2 4.8
2018-Jun-22 06:30N 32°06' W 081°07'2 4.9
2018-Jun-22 06:00N 32°05' W 081°04'3 5.8
2018-Jun-22 05:29N 32°06' W 081°01'510.7
2018-Jun-22 05:00N 32°03' W 080°56'612.1
2018-Jun-22 04:30N 32°02' W 080°49'713.1
2018-Jun-22 03:59N 31°58' W 080°42'5 9.9
2018-Jun-22 03:30N 31°56' W 080°37'3 5.7
2018-Jun-22 03:00N 31°54' W 080°35'4 8.0
2018-Jun-22 02:30N 31°52' W 080°30'816.3
2018-Jun-22 02:00N 31°49' W 080°22'816.8
2018-Jun-22 01:30N 31°44' W 080°14'816.7
2018-Jun-22 01:00N 31°40' W 080°05'816.7
2018-Jun-22 00:30N 31°36' W 079°57'816.6
2018-Jun-22 00:00N 31°31' W 079°49'816.4
2018-Jun-21 23:30N 31°27' W 079°40'815.9
2018-Jun-21 23:00N 31°24' W 079°32'816.0
2018-Jun-21 22:30N 31°20' W 079°23'816.6
2018-Jun-21 22:00N 31°15' W 079°15'  
2018-Jun-18 16:11N 09°43' W 079°44'417.6
2018-Jun-18 15:56N 09°39' W 079°46'716.4
2018-Jun-18 15:30N 09°33' W 079°49'715.0
2018-Jun-18 15:00N 09°27' W 079°53'5 9.2
2018-Jun-18 14:30N 09°22' W 079°54'0 0.7
2018-Jun-18 14:00N 09°23' W 079°53'0 0.0
2018-Jun-18 13:29N 09°23' W 079°53'0 0.0
2018-Jun-18 12:59N 09°23' W 079°53'0 0.0
2018-Jun-18 12:29N 09°23' W 079°53'0 0.0
2018-Jun-18 11:59N 09°22' W 079°53'0 0.0
2018-Jun-18 11:23N 09°23' W 079°53'0 0.0
2018-Jun-18 10:59N 09°23' W 079°53'0 0.0
2018-Jun-18 10:29N 09°23' W 079°53'0 0.0
2018-Jun-18 09:59N 09°23' W 079°53'0 0.0
2018-Jun-18 09:29N 09°23' W 079°53'0 0.0
2018-Jun-18 08:59N 09°23' W 079°53'0 0.0
2018-Jun-18 08:29N 09°23' W 079°53'0 0.0
2018-Jun-18 07:59N 09°23' W 079°53'0 0.0
2018-Jun-18 07:29N 09°23' W 079°53'0 0.0
2018-Jun-18 06:59N 09°23' W 079°53'0 0.0
2018-Jun-18 06:29N 09°23' W 079°53'0 0.0
2018-Jun-18 05:59N 09°23' W 079°53'0 0.0
2018-Jun-18 05:29N 09°22' W 079°53'0 0.0
2018-Jun-18 04:59N 09°23' W 079°53'0 0.0
2018-Jun-18 04:29N 09°23' W 079°53'0 0.0
2018-Jun-18 03:59N 09°23' W 079°53'0 0.0
2018-Jun-18 03:29N 09°23' W 079°53'0 0.0
2018-Jun-18 02:59N 09°23' W 079°53'0 0.0
2018-Jun-18 02:29N 09°23' W 079°53'0 0.0
2018-Jun-18 01:59N 09°23' W 079°53'0 0.0
2018-Jun-18 01:29N 09°23' W 079°53'0 0.0
2018-Jun-18 00:59N 09°23' W 079°53'0 0.0
2018-Jun-18 00:26N 09°22' W 079°53'0 0.0
2018-Jun-17 23:59N 09°23' W 079°53'0 0.0
2018-Jun-17 23:29N 09°23' W 079°53'0 0.0
2018-Jun-17 22:57N 09°23' W 079°53'0 0.5
2018-Jun-17 22:30N 09°22' W 079°53'3 5.3
2018-Jun-17 22:00N 09°25' W 079°54'3 6.5
2018-Jun-17 21:30N 09°22' W 079°55'4 7.4
2018-Jun-17 21:01N 09°18' W 079°55'2 3.4
2018-Jun-17 20:30N 09°17' W 079°55'0 0.1
2018-Jun-17 19:59N 09°16' W 079°55'0 0.3
2018-Jun-17 19:08N 09°16' W 079°55'0 0.9
2018-Jun-17 18:54N 09°16' W 079°55'0 0.0
2018-Jun-17 18:27N 09°16' W 079°55'1 0.7
2018-Jun-17 17:37N 09°15' W 079°55'0 0.7
2018-Jun-17 16:59N 09°15' W 079°55'2 3.5
2018-Jun-17 16:30N 09°13' W 079°55'  

Dump ship's entire track history